sensor_id;sensor_type;location;lat;lon;timestamp;temperature;humidity
54788;DHT22;59598;48.112;16.280;2024-03-23T00:51:55;11.40;99.90
54788;DHT22;59598;48.112;16.280;2024-03-23T00:54:26;11.40;99.90
54788;DHT22;59598;48.112;16.280;2024-03-23T00:56:57;11.30;99.90
54788;DHT22;59598;48.112;16.280;2024-03-23T00:59:28;11.30;99.90
54788;DHT22;59598;48.112;16.280;2024-03-23T01:01:59;11.40;1.00
54788;DHT22;59598;48.112;16.280;2024-03-23T01:04:30;11.50;1.00
54788;DHT22;59598;48.112;16.280;2024-03-23T01:07:01;11.40;99.90
54788;DHT22;59598;48.112;16.280;2024-03-23T01:09:32;11.50;99.90
54788;DHT22;59598;48.112;16.280;2024-03-23T01:12:03;11.50;1.00
54788;DHT22;59598;48.112;16.280;2024-03-23T01:14:34;11.60;99.90
54788;DHT22;59598;48.112;16.280;2024-03-23T01:17:07;11.60;1.00
54788;DHT22;59598;48.112;16.280;2024-03-23T01:19:38;11.60;1.00
54788;DHT22;59598;48.112;16.280;2024-03-23T01:22:10;11.70;1.00
54788;DHT22;59598;48.112;16.280;2024-03-23T01:24:41;11.50;1.00
54788;DHT22;59598;48.112;16.280;2024-03-23T01:27:12;11.40;1.00
54788;DHT22;59598;48.112;16.280;2024-03-23T01:29:43;11.20;1.00
54788;DHT22;59598;48.112;16.280;2024-03-23T01:32:14;11.30;99.90
54788;DHT22;59598;48.112;16.280;2024-03-23T01:34:45;11.40;99.90
54788;DHT22;59598;48.112;16.280;2024-03-23T01:37:16;11.20;1.00
54788;DHT22;59598;48.112;16.280;2024-03-23T01:39:47;11.20;1.00
54788;DHT22;59598;48.112;16.280;2024-03-23T01:42:18;11.20;1.00
54788;DHT22;59598;48.112;16.280;2024-03-23T01:44:49;11.20;99.90
54788;DHT22;59598;48.112;16.280;2024-03-23T01:47:20;11.20;1.00
54788;DHT22;59598;48.112;16.280;2024-03-23T01:49:51;11.10;1.00
54788;DHT22;59598;48.112;16.280;2024-03-23T01:52:22;11.20;1.00
54788;DHT22;59598;48.112;16.280;2024-03-23T01:54:53;11.50;1.00
54788;DHT22;59598;48.112;16.280;2024-03-23T01:57:24;11.60;1.00
54788;DHT22;59598;48.112;16.280;2024-03-23T01:59:58;11.50;1.00
54788;DHT22;59598;48.112;16.280;2024-03-23T02:02:31;11.60;1.00
54788;DHT22;59598;48.112;16.280;2024-03-23T02:05:02;11.70;1.00
54788;DHT22;59598;48.112;16.280;2024-03-23T02:07:33;11.70;1.00
54788;DHT22;59598;48.112;16.280;2024-03-23T02:10:06;11.80;1.00
54788;DHT22;59598;48.112;16.280;2024-03-23T02:12:37;11.70;1.00
54788;DHT22;59598;48.112;16.280;2024-03-23T02:15:10;11.60;1.00
54788;DHT22;59598;48.112;16.280;2024-03-23T02:17:41;11.50;1.00
54788;DHT22;59598;48.112;16.280;2024-03-23T02:20:12;11.40;1.00
54788;DHT22;59598;48.112;16.280;2024-03-23T02:22:43;11.20;1.00
54788;DHT22;59598;48.112;16.280;2024-03-23T02:25:14;11.20;1.00
54788;DHT22;59598;48.112;16.280;2024-03-23T02:27:49;11.20;1.00
54788;DHT22;59598;48.112;16.280;2024-03-23T02:30:20;11.30;1.00
54788;DHT22;59598;48.112;16.280;2024-03-23T02:32:51;11.30;1.00
54788;DHT22;59598;48.112;16.280;2024-03-23T02:35:25;11.40;1.00
54788;DHT22;59598;48.112;16.280;2024-03-23T02:37:55;11.40;1.00
54788;DHT22;59598;48.112;16.280;2024-03-23T02:40:28;11.40;1.00
54788;DHT22;59598;48.112;16.280;2024-03-23T02:42:59;11.40;1.00
54788;DHT22;59598;48.112;16.280;2024-03-23T02:45:30;11.30;1.00
54788;DHT22;59598;48.112;16.280;2024-03-23T02:48:01;11.20;1.00
54788;DHT22;59598;48.112;16.280;2024-03-23T02:50:32;11.30;1.00
54788;DHT22;59598;48.112;16.280;2024-03-23T02:53:24;11.20;1.00
54788;DHT22;59598;48.112;16.280;2024-03-23T02:55:57;11.10;1.00
54788;DHT22;59598;48.112;16.280;2024-03-23T02:58:28;11.00;1.00
54788;DHT22;59598;48.112;16.280;2024-03-23T03:00:59;11.30;1.00
54788;DHT22;59598;48.112;16.280;2024-03-23T03:03:32;11.30;1.00
54788;DHT22;59598;48.112;16.280;2024-03-23T03:06:03;11.20;1.00
54788;DHT22;59598;48.112;16.280;2024-03-23T03:08:37;11.20;1.00
54788;DHT22;59598;48.112;16.280;2024-03-23T03:11:10;11.20;1.00
54788;DHT22;59598;48.112;16.280;2024-03-23T03:13:41;11.10;1.00
54788;DHT22;59598;48.112;16.280;2024-03-23T03:16:12;11.10;1.00
54788;DHT22;59598;48.112;16.280;2024-03-23T03:18:46;11.30;1.00
54788;DHT22;59598;48.112;16.280;2024-03-23T03:21:17;11.20;1.00
54788;DHT22;59598;48.112;16.280;2024-03-23T03:23:48;11.40;1.00
54788;DHT22;59598;48.112;16.280;2024-03-23T03:26:21;11.40;1.00
54788;DHT22;59598;48.112;16.280;2024-03-23T03:28:52;11.20;1.00
54788;DHT22;59598;48.112;16.280;2024-03-23T03:31:25;11.20;1.00
54788;DHT22;59598;48.112;16.280;2024-03-23T03:33:56;11.10;1.00
54788;DHT22;59598;48.112;16.280;2024-03-23T03:36:27;10.80;1.00
54788;DHT22;59598;48.112;16.280;2024-03-23T03:38:58;11.00;1.00
54788;DHT22;59598;48.112;16.280;2024-03-23T03:41:31;10.90;1.00
54788;DHT22;59598;48.112;16.280;2024-03-23T03:44:02;11.00;1.00
54788;DHT22;59598;48.112;16.280;2024-03-23T03:46:33;11.00;1.00
54788;DHT22;59598;48.112;16.280;2024-03-23T03:49:04;11.00;1.00
54788;DHT22;59598;48.112;16.280;2024-03-23T03:51:36;11.10;1.00
54788;DHT22;59598;48.112;16.280;2024-03-23T03:54:07;11.00;1.00
54788;DHT22;59598;48.112;16.280;2024-03-23T03:56:40;11.10;1.00
54788;DHT22;59598;48.112;16.280;2024-03-23T03:59:11;11.00;1.00
54788;DHT22;59598;48.112;16.280;2024-03-23T04:01:42;10.90;1.00
54788;DHT22;59598;48.112;16.280;2024-03-23T04:04:16;10.90;1.00
54788;DHT22;59598;48.112;16.280;2024-03-23T04:06:47;10.90;1.00
54788;DHT22;59598;48.112;16.280;2024-03-23T04:09:20;11.00;1.00
54788;DHT22;59598;48.112;16.280;2024-03-23T04:11:51;11.10;1.00
54788;DHT22;59598;48.112;16.280;2024-03-23T04:14:22;11.10;1.00
54788;DHT22;59598;48.112;16.280;2024-03-23T04:16:57;11.00;1.00
54788;DHT22;59598;48.112;16.280;2024-03-23T04:19:28;11.10;1.00
54788;DHT22;59598;48.112;16.280;2024-03-23T04:22:02;11.20;1.00
54788;DHT22;59598;48.112;16.280;2024-03-23T04:24:34;11.40;1.00
54788;DHT22;59598;48.112;16.280;2024-03-23T04:27:05;11.50;1.00
54788;DHT22;59598;48.112;16.280;2024-03-23T04:29:36;11.50;1.00
54788;DHT22;59598;48.112;16.280;2024-03-23T04:32:07;11.50;1.00
54788;DHT22;59598;48.112;16.280;2024-03-23T04:34:40;11.50;1.00
54788;DHT22;59598;48.112;16.280;2024-03-23T04:37:11;11.60;1.00
54788;DHT22;59598;48.112;16.280;2024-03-23T04:39:42;11.60;1.00
54788;DHT22;59598;48.112;16.280;2024-03-23T04:42:15;11.50;1.00
54788;DHT22;59598;48.112;16.280;2024-03-23T04:44:47;11.50;1.00
54788;DHT22;59598;48.112;16.280;2024-03-23T04:47:18;11.40;1.00
54788;DHT22;59598;48.112;16.280;2024-03-23T04:49:50;11.40;1.00
54788;DHT22;59598;48.112;16.280;2024-03-23T04:52:20;11.50;1.00
54788;DHT22;59598;48.112;16.280;2024-03-23T04:54:51;11.20;1.00
54788;DHT22;59598;48.112;16.280;2024-03-23T04:57:22;11.20;1.00
54788;DHT22;59598;48.112;16.280;2024-03-23T04:59:55;11.20;1.00
54788;DHT22;59598;48.112;16.280;2024-03-23T05:02:28;11.20;1.00
54788;DHT22;59598;48.112;16.280;2024-03-23T05:04:59;11.20;1.00
54788;DHT22;59598;48.112;16.280;2024-03-23T05:07:30;11.30;1.00
54788;DHT22;59598;48.112;16.280;2024-03-23T05:10:02;11.30;1.00
54788;DHT22;59598;48.112;16.280;2024-03-23T05:12:34;11.30;1.00
54788;DHT22;59598;48.112;16.280;2024-03-23T05:15:05;11.20;1.00
54788;DHT22;59598;48.112;16.280;2024-03-23T05:17:39;11.20;1.00
54788;DHT22;59598;48.112;16.280;2024-03-23T05:20:10;11.20;1.00
54788;DHT22;59598;48.112;16.280;2024-03-23T05:22:43;11.10;1.00
54788;DHT22;59598;48.112;16.280;2024-03-23T05:25:14;11.30;1.00
54788;DHT22;59598;48.112;16.280;2024-03-23T05:27:47;11.20;1.00
54788;DHT22;59598;48.112;16.280;2024-03-23T05:30:18;11.20;1.00
54788;DHT22;59598;48.112;16.280;2024-03-23T05:32:51;11.20;1.00
54788;DHT22;59598;48.112;16.280;2024-03-23T05:35:26;11.30;1.00
54788;DHT22;59598;48.112;16.280;2024-03-23T05:37:59;11.50;1.00
54788;DHT22;59598;48.112;16.280;2024-03-23T05:40:30;11.70;1.00
54788;DHT22;59598;48.112;16.280;2024-03-23T05:43:02;11.80;1.00
54788;DHT22;59598;48.112;16.280;2024-03-23T05:45:34;12.10;1.00
54788;DHT22;59598;48.112;16.280;2024-03-23T05:48:05;12.20;1.00
54788;DHT22;59598;48.112;16.280;2024-03-23T05:50:36;12.40;1.00
54788;DHT22;59598;48.112;16.280;2024-03-23T05:53:07;12.50;1.00
54788;DHT22;59598;48.112;16.280;2024-03-23T05:55:39;12.60;1.00
54788;DHT22;59598;48.112;16.280;2024-03-23T05:58:10;12.70;1.00
54788;DHT22;59598;48.112;16.280;2024-03-23T06:00:41;12.70;1.00
54788;DHT22;59598;48.112;16.280;2024-03-23T06:03:15;12.70;1.00
54788;DHT22;59598;48.112;16.280;2024-03-23T06:05:46;12.60;1.00
54788;DHT22;59598;48.112;16.280;2024-03-23T06:08:17;12.60;1.00
54788;DHT22;59598;48.112;16.280;2024-03-23T06:10:49;12.60;1.00
54788;DHT22;59598;48.112;16.280;2024-03-23T06:13:23;12.60;1.00
54788;DHT22;59598;48.112;16.280;2024-03-23T06:16:01;12.60;1.00
54788;DHT22;59598;48.112;16.280;2024-03-23T06:18:32;12.70;1.00
54788;DHT22;59598;48.112;16.280;2024-03-23T06:21:12;12.80;1.00
54788;DHT22;59598;48.112;16.280;2024-03-23T06:23:43;13.00;1.00
54788;DHT22;59598;48.112;16.280;2024-03-23T06:26:18;12.90;1.00
54788;DHT22;59598;48.112;16.280;2024-03-23T06:28:50;13.00;1.00
54788;DHT22;59598;48.112;16.280;2024-03-23T06:31:21;12.90;1.00
54788;DHT22;59598;48.112;16.280;2024-03-23T06:33:55;12.90;1.00
54788;DHT22;59598;48.112;16.280;2024-03-23T06:36:28;12.80;99.90
54788;DHT22;59598;48.112;16.280;2024-03-23T06:39:01;12.70;99.90
54788;DHT22;59598;48.112;16.280;2024-03-23T06:41:32;12.50;99.90
54788;DHT22;59598;48.112;16.280;2024-03-23T06:44:03;12.50;99.90
54788;DHT22;59598;48.112;16.280;2024-03-23T06:46:35;12.50;99.90
54788;DHT22;59598;48.112;16.280;2024-03-23T06:49:07;12.50;99.90
54788;DHT22;59598;48.112;16.280;2024-03-23T06:51:38;12.80;99.90
54788;DHT22;59598;48.112;16.280;2024-03-23T06:54:10;12.80;99.90
54788;DHT22;59598;48.112;16.280;2024-03-23T06:56:41;12.90;1.00
54788;DHT22;59598;48.112;16.280;2024-03-23T06:59:12;12.90;1.00
54788;DHT22;59598;48.112;16.280;2024-03-23T07:01:43;13.10;1.00
54788;DHT22;59598;48.112;16.280;2024-03-23T07:04:14;13.10;1.00
54788;DHT22;59598;48.112;16.280;2024-03-23T07:06:45;13.20;99.90
54788;DHT22;59598;48.112;16.280;2024-03-23T07:09:16;13.40;1.00
54788;DHT22;59598;48.112;16.280;2024-03-23T07:11:48;13.50;1.00
54788;DHT22;59598;48.112;16.280;2024-03-23T07:14:19;13.50;1.00
54788;DHT22;59598;48.112;16.280;2024-03-23T07:16:50;13.60;1.00
54788;DHT22;59598;48.112;16.280;2024-03-23T07:19:21;13.80;1.00
54788;DHT22;59598;48.112;16.280;2024-03-23T07:21:52;13.90;1.00
54788;DHT22;59598;48.112;16.280;2024-03-23T07:24:25;14.10;1.00
54788;DHT22;59598;48.112;16.280;2024-03-23T07:26:56;14.30;1.00
54788;DHT22;59598;48.112;16.280;2024-03-23T07:29:29;14.40;1.00
54788;DHT22;59598;48.112;16.280;2024-03-23T07:32:03;14.40;1.00
54788;DHT22;59598;48.112;16.280;2024-03-23T07:34:34;14.40;99.90
54788;DHT22;59598;48.112;16.280;2024-03-23T07:37:05;14.60;1.00
54788;DHT22;59598;48.112;16.280;2024-03-23T07:39:36;14.90;1.00
54788;DHT22;59598;48.112;16.280;2024-03-23T07:42:08;15.10;1.00
54788;DHT22;59598;48.112;16.280;2024-03-23T07:44:39;15.20;99.90
54788;DHT22;59598;48.112;16.280;2024-03-23T07:47:10;15.10;1.00
54788;DHT22;59598;48.112;16.280;2024-03-23T07:49:41;14.80;99.90
54788;DHT22;59598;48.112;16.280;2024-03-23T07:52:12;14.40;99.90
54788;DHT22;59598;48.112;16.280;2024-03-23T07:54:46;14.30;99.90
54788;DHT22;59598;48.112;16.280;2024-03-23T07:57:17;14.30;99.90
54788;DHT22;59598;48.112;16.280;2024-03-23T07:59:48;14.50;99.90
54788;DHT22;59598;48.112;16.280;2024-03-23T08:02:22;14.70;1.00
54788;DHT22;59598;48.112;16.280;2024-03-23T08:05:02;15.00;1.00
54788;DHT22;59598;48.112;16.280;2024-03-23T08:07:36;15.20;1.00
54788;DHT22;59598;48.112;16.280;2024-03-23T08:10:07;14.80;1.00
54788;DHT22;59598;48.112;16.280;2024-03-23T08:12:38;15.00;99.90
54788;DHT22;59598;48.112;16.280;2024-03-23T08:15:09;15.40;1.00
54788;DHT22;59598;48.112;16.280;2024-03-23T08:17:40;15.70;1.00
54788;DHT22;59598;48.112;16.280;2024-03-23T08:20:11;15.90;1.00
54788;DHT22;59598;48.112;16.280;2024-03-23T08:22:43;15.70;1.00
54788;DHT22;59598;48.112;16.280;2024-03-23T08:25:16;15.70;1.00
54788;DHT22;59598;48.112;16.280;2024-03-23T08:27:47;16.00;1.00
54788;DHT22;59598;48.112;16.280;2024-03-23T08:30:21;16.20;99.90
54788;DHT22;59598;48.112;16.280;2024-03-23T08:32:52;16.30;99.90
54788;DHT22;59598;48.112;16.280;2024-03-23T08:35:23;16.70;1.00
54788;DHT22;59598;48.112;16.280;2024-03-23T08:37:54;16.90;1.00
54788;DHT22;59598;48.112;16.280;2024-03-23T08:40:27;17.10;99.90
54788;DHT22;59598;48.112;16.280;2024-03-23T08:42:58;17.20;1.00
54788;DHT22;59598;48.112;16.280;2024-03-23T08:45:30;17.40;1.00
54788;DHT22;59598;48.112;16.280;2024-03-23T08:48:01;17.80;1.00
54788;DHT22;59598;48.112;16.280;2024-03-23T08:50:32;18.10;99.90
54788;DHT22;59598;48.112;16.280;2024-03-23T08:53:05;18.10;99.90
54788;DHT22;59598;48.112;16.280;2024-03-23T08:55:36;17.90;99.90
54788;DHT22;59598;48.112;16.280;2024-03-23T08:58:07;17.90;99.90
54788;DHT22;59598;48.112;16.280;2024-03-23T09:00:41;18.20;99.90
54788;DHT22;59598;48.112;16.280;2024-03-23T09:03:12;18.60;99.90
54788;DHT22;59598;48.112;16.280;2024-03-23T09:05:43;18.80;99.90
54788;DHT22;59598;48.112;16.280;2024-03-23T09:08:17;19.10;99.90
54788;DHT22;59598;48.112;16.280;2024-03-23T09:10:53;19.10;99.90
54788;DHT22;59598;48.112;16.280;2024-03-23T09:13:27;19.40;99.90
54788;DHT22;59598;48.112;16.280;2024-03-23T09:15:58;19.70;1.00
54788;DHT22;59598;48.112;16.280;2024-03-23T09:18:33;19.90;99.90
54788;DHT22;59598;48.112;16.280;2024-03-23T09:21:10;20.20;99.90
54788;DHT22;59598;48.112;16.280;2024-03-23T09:23:45;20.30;1.00
54788;DHT22;59598;48.112;16.280;2024-03-23T09:26:16;20.40;99.90
54788;DHT22;59598;48.112;16.280;2024-03-23T09:28:50;20.60;99.90
54788;DHT22;59598;48.112;16.280;2024-03-23T09:31:21;20.70;99.90
54788;DHT22;59598;48.112;16.280;2024-03-23T09:33:52;20.80;99.90
54788;DHT22;59598;48.112;16.280;2024-03-23T09:36:23;21.10;99.90
54788;DHT22;59598;48.112;16.280;2024-03-23T09:38:54;21.20;99.90
54788;DHT22;59598;48.112;16.280;2024-03-23T09:41:26;21.20;99.90
54788;DHT22;59598;48.112;16.280;2024-03-23T09:43:57;21.10;99.90
54788;DHT22;59598;48.112;16.280;2024-03-23T09:46:28;21.20;1.00
54788;DHT22;59598;48.112;16.280;2024-03-23T09:48:59;21.40;99.90
54788;DHT22;59598;48.112;16.280;2024-03-23T09:51:31;22.00;99.90
54788;DHT22;59598;48.112;16.280;2024-03-23T09:54:02;22.80;99.90
54788;DHT22;59598;48.112;16.280;2024-03-23T09:56:33;23.40;99.90
54788;DHT22;59598;48.112;16.280;2024-03-23T09:59:04;24.30;99.90
54788;DHT22;59598;48.112;16.280;2024-03-23T10:01:35;24.40;99.90
54788;DHT22;59598;48.112;16.280;2024-03-23T10:04:08;23.70;99.90
54788;DHT22;59598;48.112;16.280;2024-03-23T10:06:39;23.60;99.90
54788;DHT22;59598;48.112;16.280;2024-03-23T10:09:17;23.50;99.90
54788;DHT22;59598;48.112;16.280;2024-03-23T10:11:52;23.30;99.90
54788;DHT22;59598;48.112;16.280;2024-03-23T10:14:28;22.80;99.90
54788;DHT22;59598;48.112;16.280;2024-03-23T10:19:48;22.70;99.90
54788;DHT22;59598;48.112;16.280;2024-03-23T10:22:21;22.60;1.00
54788;DHT22;59598;48.112;16.280;2024-03-23T10:24:53;22.80;99.90
54788;DHT22;59598;48.112;16.280;2024-03-23T10:27:24;23.00;99.90
54788;DHT22;59598;48.112;16.280;2024-03-23T10:29:59;23.50;99.90
54788;DHT22;59598;48.112;16.280;2024-03-23T10:32:38;23.40;99.90
54788;DHT22;59598;48.112;16.280;2024-03-23T10:35:16;23.20;99.90
54788;DHT22;59598;48.112;16.280;2024-03-23T10:37:50;23.60;99.90
54788;DHT22;59598;48.112;16.280;2024-03-23T10:40:22;24.20;1.00
54788;DHT22;59598;48.112;16.280;2024-03-23T10:42:55;24.40;99.90
54788;DHT22;59598;48.112;16.280;2024-03-23T10:45:30;25.00;1.00
54788;DHT22;59598;48.112;16.280;2024-03-23T10:48:01;24.80;1.00
54788;DHT22;59598;48.112;16.280;2024-03-23T10:50:35;24.80;1.00
54788;DHT22;59598;48.112;16.280;2024-03-23T10:53:07;24.90;1.00
54788;DHT22;59598;48.112;16.280;2024-03-23T10:55:38;25.60;1.00
54788;DHT22;59598;48.112;16.280;2024-03-23T10:58:10;26.30;1.00
54788;DHT22;59598;48.112;16.280;2024-03-23T11:00:43;26.60;1.00
54788;DHT22;59598;48.112;16.280;2024-03-23T11:06:01;27.10;99.90
54788;DHT22;59598;48.112;16.280;2024-03-23T11:08:42;27.50;99.90
54788;DHT22;59598;48.112;16.280;2024-03-23T11:11:19;28.00;1.00
54788;DHT22;59598;48.112;16.280;2024-03-23T11:13:51;28.40;99.90
54788;DHT22;59598;48.112;16.280;2024-03-23T11:16:25;28.10;99.90
54788;DHT22;59598;48.112;16.280;2024-03-23T11:21:56;28.20;99.90
54788;DHT22;59598;48.112;16.280;2024-03-23T11:24:27;26.70;1.00
54788;DHT22;59598;48.112;16.280;2024-03-23T11:27:01;25.90;1.00
54788;DHT22;59598;48.112;16.280;2024-03-23T11:29:34;25.60;1.00
54788;DHT22;59598;48.112;16.280;2024-03-23T11:32:05;25.40;1.00
54788;DHT22;59598;48.112;16.280;2024-03-23T11:34:40;25.10;1.00
54788;DHT22;59598;48.112;16.280;2024-03-23T11:37:11;24.50;1.00
54788;DHT22;59598;48.112;16.280;2024-03-23T11:39:45;24.00;1.00
54788;DHT22;59598;48.112;16.280;2024-03-23T11:42:19;23.70;1.00
54788;DHT22;59598;48.112;16.280;2024-03-23T11:44:52;23.60;99.90
54788;DHT22;59598;48.112;16.280;2024-03-23T11:47:23;23.20;99.90
54788;DHT22;59598;48.112;16.280;2024-03-23T11:49:56;22.90;99.90
54788;DHT22;59598;48.112;16.280;2024-03-23T11:52:27;22.80;99.90
54788;DHT22;59598;48.112;16.280;2024-03-23T11:55:05;22.60;99.90
54788;DHT22;59598;48.112;16.280;2024-03-23T11:57:38;22.20;1.00
54788;DHT22;59598;48.112;16.280;2024-03-23T12:00:22;21.60;1.00
54788;DHT22;59598;48.112;16.280;2024-03-23T12:02:53;21.50;1.00
54788;DHT22;59598;48.112;16.280;2024-03-23T12:05:25;21.30;99.90
54788;DHT22;59598;48.112;16.280;2024-03-23T12:08:18;21.20;99.90
54788;DHT22;59598;48.112;16.280;2024-03-23T12:10:53;21.10;1.00
54788;DHT22;59598;48.112;16.280;2024-03-23T12:13:25;21.00;1.00
54788;DHT22;59598;48.112;16.280;2024-03-23T12:16:08;20.90;1.00
54788;DHT22;59598;48.112;16.280;2024-03-23T12:18:43;20.80;99.90
54788;DHT22;59598;48.112;16.280;2024-03-23T12:21:17;20.70;99.90
54788;DHT22;59598;48.112;16.280;2024-03-23T12:23:49;20.70;99.90
54788;DHT22;59598;48.112;16.280;2024-03-23T12:26:22;20.60;99.90
54788;DHT22;59598;48.112;16.280;2024-03-23T12:28:56;20.50;99.90
54788;DHT22;59598;48.112;16.280;2024-03-23T12:31:28;20.60;99.90
54788;DHT22;59598;48.112;16.280;2024-03-23T12:34:01;20.40;99.90
54788;DHT22;59598;48.112;16.280;2024-03-23T12:36:33;20.50;99.90
54788;DHT22;59598;48.112;16.280;2024-03-23T12:39:04;20.40;99.90
54788;DHT22;59598;48.112;16.280;2024-03-23T12:41:35;20.20;99.90
54788;DHT22;59598;48.112;16.280;2024-03-23T12:44:08;19.80;99.90
54788;DHT22;59598;48.112;16.280;2024-03-23T12:46:42;19.50;70.30
54788;DHT22;59598;48.112;16.280;2024-03-23T12:49:13;19.20;50.00
54788;DHT22;59598;48.112;16.280;2024-03-23T12:51:47;18.80;28.10
54788;DHT22;59598;48.112;16.280;2024-03-23T12:54:18;17.40;1.00
54788;DHT22;59598;48.112;16.280;2024-03-23T12:56:51;16.10;1.00
54788;DHT22;59598;48.112;16.280;2024-03-23T12:59:22;15.30;1.00
54788;DHT22;59598;48.112;16.280;2024-03-23T13:01:53;15.20;1.00
54788;DHT22;59598;48.112;16.280;2024-03-23T13:04:25;15.40;1.00
54788;DHT22;59598;48.112;16.280;2024-03-23T13:06:59;15.50;1.00
54788;DHT22;59598;48.112;16.280;2024-03-23T13:09:30;15.40;1.00
54788;DHT22;59598;48.112;16.280;2024-03-23T13:12:03;15.40;1.00
54788;DHT22;59598;48.112;16.280;2024-03-23T13:14:34;15.00;1.00
54788;DHT22;59598;48.112;16.280;2024-03-23T13:17:06;14.80;1.00
54788;DHT22;59598;48.112;16.280;2024-03-23T13:19:37;14.60;1.00
54788;DHT22;59598;48.112;16.280;2024-03-23T13:22:08;14.50;1.00
54788;DHT22;59598;48.112;16.280;2024-03-23T13:24:42;14.40;1.00
54788;DHT22;59598;48.112;16.280;2024-03-23T13:27:15;14.10;1.00
54788;DHT22;59598;48.112;16.280;2024-03-23T13:29:46;14.00;1.00
54788;DHT22;59598;48.112;16.280;2024-03-23T13:32:17;13.70;1.00
54788;DHT22;59598;48.112;16.280;2024-03-23T13:34:51;13.40;1.00
54788;DHT22;59598;48.112;16.280;2024-03-23T13:37:22;13.20;1.00
54788;DHT22;59598;48.112;16.280;2024-03-23T13:39:53;12.90;1.00
54788;DHT22;59598;48.112;16.280;2024-03-23T13:42:24;12.60;1.00
54788;DHT22;59598;48.112;16.280;2024-03-23T13:44:56;12.10;1.00
54788;DHT22;59598;48.112;16.280;2024-03-23T13:47:27;11.80;1.00
54788;DHT22;59598;48.112;16.280;2024-03-23T13:49:58;11.50;99.90
54788;DHT22;59598;48.112;16.280;2024-03-23T13:52:30;11.20;1.00
54788;DHT22;59598;48.112;16.280;2024-03-23T13:55:02;11.10;99.90
54788;DHT22;59598;48.112;16.280;2024-03-23T13:57:33;10.90;99.90
54788;DHT22;59598;48.112;16.280;2024-03-23T14:00:07;10.90;1.00
54788;DHT22;59598;48.112;16.280;2024-03-23T14:02:38;10.70;1.00
54788;DHT22;59598;48.112;16.280;2024-03-23T14:05:11;10.60;54.30
54788;DHT22;59598;48.112;16.280;2024-03-23T14:07:44;10.40;1.00
54788;DHT22;59598;48.112;16.280;2024-03-23T14:10:16;10.30;1.00
54788;DHT22;59598;48.112;16.280;2024-03-23T14:12:47;10.30;75.50
54788;DHT22;59598;48.112;16.280;2024-03-23T14:15:24;10.20;1.00
54788;DHT22;59598;48.112;16.280;2024-03-23T14:17:55;10.20;1.00
54788;DHT22;59598;48.112;16.280;2024-03-23T14:20:26;10.20;1.00
54788;DHT22;59598;48.112;16.280;2024-03-23T14:22:57;10.20;88.50
54788;DHT22;59598;48.112;16.280;2024-03-23T14:25:28;10.10;1.00
54788;DHT22;59598;48.112;16.280;2024-03-23T14:28:02;10.10;99.90
54788;DHT22;59598;48.112;16.280;2024-03-23T14:30:36;10.10;99.90
54788;DHT22;59598;48.112;16.280;2024-03-23T14:33:07;10.00;99.90
54788;DHT22;59598;48.112;16.280;2024-03-23T14:35:38;10.00;99.90
54788;DHT22;59598;48.112;16.280;2024-03-23T14:38:10;10.10;1.00
54788;DHT22;59598;48.112;16.280;2024-03-23T14:40:44;10.10;1.00
54788;DHT22;59598;48.112;16.280;2024-03-23T14:43:15;10.20;1.00
54788;DHT22;59598;48.112;16.280;2024-03-23T14:48:36;10.20;99.90
54788;DHT22;59598;48.112;16.280;2024-03-23T14:51:07;10.20;99.90
54788;DHT22;59598;48.112;16.280;2024-03-23T14:53:41;10.10;99.90
54788;DHT22;59598;48.112;16.280;2024-03-23T14:56:12;10.00;99.90
54788;DHT22;59598;48.112;16.280;2024-03-23T14:58:46;9.70;99.90
54788;DHT22;59598;48.112;16.280;2024-03-23T15:01:17;9.60;99.90
54788;DHT22;59598;48.112;16.280;2024-03-23T15:03:51;9.60;99.90
54788;DHT22;59598;48.112;16.280;2024-03-23T15:06:24;9.60;99.90
54788;DHT22;59598;48.112;16.280;2024-03-23T15:08:55;9.50;99.90
54788;DHT22;59598;48.112;16.280;2024-03-23T15:11:26;9.30;1.00
54788;DHT22;59598;48.112;16.280;2024-03-23T15:13:57;9.10;1.00
54788;DHT22;59598;48.112;16.280;2024-03-23T15:16:28;8.90;99.90
54788;DHT22;59598;48.112;16.280;2024-03-23T15:18:59;8.80;1.00
54788;DHT22;59598;48.112;16.280;2024-03-23T15:21:30;8.60;1.00
54788;DHT22;59598;48.112;16.280;2024-03-23T15:24:01;8.60;99.90
54788;DHT22;59598;48.112;16.280;2024-03-23T15:26:36;8.50;1.00
54788;DHT22;59598;48.112;16.280;2024-03-23T15:29:10;8.40;1.00
54788;DHT22;59598;48.112;16.280;2024-03-23T15:31:47;8.30;1.00
54788;DHT22;59598;48.112;16.280;2024-03-23T15:34:23;8.20;1.00
54788;DHT22;59598;48.112;16.280;2024-03-23T15:36:56;8.20;1.00
54788;DHT22;59598;48.112;16.280;2024-03-23T15:39:27;8.10;1.00
54788;DHT22;59598;48.112;16.280;2024-03-23T15:41:59;8.00;1.00
54788;DHT22;59598;48.112;16.280;2024-03-23T15:44:30;7.80;1.00
54788;DHT22;59598;48.112;16.280;2024-03-23T15:47:01;7.80;1.00
54788;DHT22;59598;48.112;16.280;2024-03-23T15:49:33;7.70;1.00
54788;DHT22;59598;48.112;16.280;2024-03-23T15:52:07;7.70;99.90
54788;DHT22;59598;48.112;16.280;2024-03-23T15:54:39;7.80;9.70
54788;DHT22;59598;48.112;16.280;2024-03-23T15:57:10;7.80;99.90
54788;DHT22;59598;48.112;16.280;2024-03-23T15:59:41;7.90;1.00
54788;DHT22;59598;48.112;16.280;2024-03-23T16:02:12;8.00;1.00
54788;DHT22;59598;48.112;16.280;2024-03-23T16:04:45;8.20;99.90
54788;DHT22;59598;48.112;16.280;2024-03-23T16:07:16;8.40;56.30
54788;DHT22;59598;48.112;16.280;2024-03-23T16:09:47;8.40;1.00
54788;DHT22;59598;48.112;16.280;2024-03-23T16:12:18;8.40;1.00
54788;DHT22;59598;48.112;16.280;2024-03-23T16:14:49;8.60;1.00
54788;DHT22;59598;48.112;16.280;2024-03-23T16:17:20;8.60;1.00
54788;DHT22;59598;48.112;16.280;2024-03-23T16:19:51;8.60;1.00
54788;DHT22;59598;48.112;16.280;2024-03-23T16:22:22;8.60;1.00
54788;DHT22;59598;48.112;16.280;2024-03-23T16:24:58;8.60;1.00
54788;DHT22;59598;48.112;16.280;2024-03-23T16:27:29;8.80;1.00
54788;DHT22;59598;48.112;16.280;2024-03-23T16:30:03;8.90;1.00
54788;DHT22;59598;48.112;16.280;2024-03-23T16:32:34;9.00;1.00
54788;DHT22;59598;48.112;16.280;2024-03-23T16:35:09;9.00;99.90
54788;DHT22;59598;48.112;16.280;2024-03-23T16:37:43;9.10;1.00
54788;DHT22;59598;48.112;16.280;2024-03-23T16:40:17;9.20;99.90
54788;DHT22;59598;48.112;16.280;2024-03-23T16:42:54;9.20;99.90
54788;DHT22;59598;48.112;16.280;2024-03-23T16:45:25;9.20;1.00
54788;DHT22;59598;48.112;16.280;2024-03-23T16:47:56;9.10;99.90
54788;DHT22;59598;48.112;16.280;2024-03-23T16:50:29;9.20;99.90
54788;DHT22;59598;48.112;16.280;2024-03-23T16:53:01;9.20;1.00
54788;DHT22;59598;48.112;16.280;2024-03-23T16:55:32;9.20;1.00
54788;DHT22;59598;48.112;16.280;2024-03-23T16:58:03;9.20;99.90
54788;DHT22;59598;48.112;16.280;2024-03-23T17:00:35;9.30;99.90